sensor_id;sensor_type;location;lat;lon;timestamp;P1;durP1;ratioP1;P2;durP2;ratioP2
8488;SDS011;4281;45.772;12.852;2023-03-01T00:01:09;7.93;;;5.67;;
8488;SDS011;4281;45.772;12.852;2023-03-01T00:03:38;6.70;;;5.70;;
8488;SDS011;4281;45.772;12.852;2023-03-01T00:06:08;6.53;;;5.87;;
8488;SDS011;4281;45.772;12.852;2023-03-01T00:08:36;6.90;;;6.20;;
8488;SDS011;4281;45.772;12.852;2023-03-01T00:11:05;6.80;;;6.07;;
8488;SDS011;4281;45.772;12.852;2023-03-01T00:13:34;6.57;;;5.50;;
8488;SDS011;4281;45.772;12.852;2023-03-01T00:16:02;7.73;;;6.00;;
8488;SDS011;4281;45.772;12.852;2023-03-01T00:18:31;7.00;;;6.00;;
8488;SDS011;4281;45.772;12.852;2023-03-01T00:20:59;7.37;;;6.07;;
8488;SDS011;4281;45.772;12.852;2023-03-01T00:23:28;8.13;;;5.97;;
8488;SDS011;4281;45.772;12.852;2023-03-01T00:25:56;5.63;;;5.03;;
8488;SDS011;4281;45.772;12.852;2023-03-01T00:28:24;6.80;;;6.10;;
8488;SDS011;4281;45.772;12.852;2023-03-01T00:30:52;6.90;;;5.57;;
8488;SDS011;4281;45.772;12.852;2023-03-01T00:33:20;6.20;;;5.57;;
8488;SDS011;4281;45.772;12.852;2023-03-01T00:35:47;7.47;;;5.63;;
8488;SDS011;4281;45.772;12.852;2023-03-01T00:38:15;6.67;;;5.33;;
8488;SDS011;4281;45.772;12.852;2023-03-01T00:40:45;6.50;;;5.73;;
8488;SDS011;4281;45.772;12.852;2023-03-01T00:43:12;6.50;;;5.60;;
8488;SDS011;4281;45.772;12.852;2023-03-01T00:45:40;7.13;;;6.00;;
8488;SDS011;4281;45.772;12.852;2023-03-01T00:48:08;6.50;;;5.73;;
8488;SDS011;4281;45.772;12.852;2023-03-01T00:50:36;6.93;;;6.23;;
8488;SDS011;4281;45.772;12.852;2023-03-01T00:53:03;7.57;;;5.50;;
8488;SDS011;4281;45.772;12.852;2023-03-01T00:55:31;7.77;;;6.23;;
8488;SDS011;4281;45.772;12.852;2023-03-01T00:58:01;6.77;;;5.33;;
8488;SDS011;4281;45.772;12.852;2023-03-01T01:00:28;6.80;;;5.77;;
8488;SDS011;4281;45.772;12.852;2023-03-01T01:02:56;6.40;;;5.57;;
8488;SDS011;4281;45.772;12.852;2023-03-01T01:05:24;6.90;;;6.07;;
8488;SDS011;4281;45.772;12.852;2023-03-01T01:07:52;7.37;;;5.63;;
8488;SDS011;4281;45.772;12.852;2023-03-01T01:10:20;6.60;;;5.90;;
8488;SDS011;4281;45.772;12.852;2023-03-01T01:12:47;6.63;;;5.70;;
8488;SDS011;4281;45.772;12.852;2023-03-01T01:15:17;5.87;;;5.23;;
8488;SDS011;4281;45.772;12.852;2023-03-01T01:17:45;6.00;;;5.17;;
8488;SDS011;4281;45.772;12.852;2023-03-01T01:20:12;7.10;;;6.00;;
8488;SDS011;4281;45.772;12.852;2023-03-01T01:22:40;7.57;;;6.53;;
8488;SDS011;4281;45.772;12.852;2023-03-01T01:25:09;6.77;;;6.03;;
8488;SDS011;4281;45.772;12.852;2023-03-01T01:27:36;7.13;;;5.77;;
8488;SDS011;4281;45.772;12.852;2023-03-01T01:30:05;7.53;;;6.33;;
8488;SDS011;4281;45.772;12.852;2023-03-01T01:32:35;7.07;;;5.77;;
8488;SDS011;4281;45.772;12.852;2023-03-01T01:35:03;7.90;;;6.87;;
8488;SDS011;4281;45.772;12.852;2023-03-01T01:37:31;6.80;;;5.60;;
8488;SDS011;4281;45.772;12.852;2023-03-01T01:39:59;7.77;;;6.70;;
8488;SDS011;4281;45.772;12.852;2023-03-01T01:42:27;8.40;;;6.30;;
8488;SDS011;4281;45.772;12.852;2023-03-01T01:48:00;6.77;;;5.70;;
8488;SDS011;4281;45.772;12.852;2023-03-01T01:50:31;6.87;;;5.70;;
8488;SDS011;4281;45.772;12.852;2023-03-01T01:53:09;7.20;;;6.30;;
8488;SDS011;4281;45.772;12.852;2023-03-01T01:55:39;7.17;;;5.93;;
8488;SDS011;4281;45.772;12.852;2023-03-01T01:58:12;6.83;;;5.70;;
8488;SDS011;4281;45.772;12.852;2023-03-01T02:00:42;6.63;;;5.93;;
8488;SDS011;4281;45.772;12.852;2023-03-01T02:03:13;6.77;;;6.07;;
8488;SDS011;4281;45.772;12.852;2023-03-01T02:05:45;7.37;;;6.27;;
8488;SDS011;4281;45.772;12.852;2023-03-01T02:08:21;8.07;;;5.60;;
8488;SDS011;4281;45.772;12.852;2023-03-01T02:10:51;7.03;;;6.03;;
8488;SDS011;4281;45.772;12.852;2023-03-01T02:13:19;6.47;;;5.87;;
8488;SDS011;4281;45.772;12.852;2023-03-01T02:15:47;7.10;;;5.90;;
8488;SDS011;4281;45.772;12.852;2023-03-01T02:18:17;6.80;;;6.00;;
8488;SDS011;4281;45.772;12.852;2023-03-01T02:20:50;8.63;;;7.13;;
8488;SDS011;4281;45.772;12.852;2023-03-01T02:23:25;7.57;;;6.70;;
8488;SDS011;4281;45.772;12.852;2023-03-01T02:25:55;6.40;;;5.80;;
8488;SDS011;4281;45.772;12.852;2023-03-01T02:28:27;8.00;;;6.70;;
8488;SDS011;4281;45.772;12.852;2023-03-01T02:30:57;7.43;;;6.17;;
8488;SDS011;4281;45.772;12.852;2023-03-01T02:33:42;8.23;;;6.20;;
8488;SDS011;4281;45.772;12.852;2023-03-01T02:36:12;7.63;;;6.20;;
8488;SDS011;4281;45.772;12.852;2023-03-01T02:38:42;7.67;;;6.87;;
8488;SDS011;4281;45.772;12.852;2023-03-01T02:41:11;7.13;;;6.13;;
8488;SDS011;4281;45.772;12.852;2023-03-01T02:43:42;8.60;;;6.80;;
8488;SDS011;4281;45.772;12.852;2023-03-01T02:46:13;8.53;;;6.60;;
8488;SDS011;4281;45.772;12.852;2023-03-01T02:48:43;6.80;;;6.07;;
8488;SDS011;4281;45.772;12.852;2023-03-01T02:51:16;7.83;;;6.73;;
8488;SDS011;4281;45.772;12.852;2023-03-01T02:53:53;8.47;;;6.20;;
8488;SDS011;4281;45.772;12.852;2023-03-01T02:56:25;7.90;;;6.67;;
8488;SDS011;4281;45.772;12.852;2023-03-01T02:58:56;7.50;;;6.50;;
8488;SDS011;4281;45.772;12.852;2023-03-01T03:01:27;9.00;;;6.77;;
8488;SDS011;4281;45.772;12.852;2023-03-01T03:04:03;6.93;;;6.23;;
8488;SDS011;4281;45.772;12.852;2023-03-01T03:06:32;7.97;;;6.67;;
8488;SDS011;4281;45.772;12.852;2023-03-01T03:09:00;8.27;;;6.63;;
8488;SDS011;4281;45.772;12.852;2023-03-01T03:11:28;7.10;;;6.40;;
8488;SDS011;4281;45.772;12.852;2023-03-01T03:13:57;6.87;;;6.10;;
8488;SDS011;4281;45.772;12.852;2023-03-01T03:16:25;7.07;;;6.30;;
8488;SDS011;4281;45.772;12.852;2023-03-01T03:18:54;7.43;;;6.13;;
8488;SDS011;4281;45.772;12.852;2023-03-01T03:21:31;7.80;;;6.40;;
8488;SDS011;4281;45.772;12.852;2023-03-01T03:23:59;7.83;;;6.40;;
8488;SDS011;4281;45.772;12.852;2023-03-01T03:26:26;7.53;;;5.90;;
8488;SDS011;4281;45.772;12.852;2023-03-01T03:28:55;7.27;;;6.00;;
8488;SDS011;4281;45.772;12.852;2023-03-01T03:31:24;7.13;;;6.30;;
8488;SDS011;4281;45.772;12.852;2023-03-01T03:33:52;8.47;;;6.60;;
8488;SDS011;4281;45.772;12.852;2023-03-01T03:36:21;9.13;;;6.77;;
8488;SDS011;4281;45.772;12.852;2023-03-01T03:38:51;7.03;;;5.97;;
8488;SDS011;4281;45.772;12.852;2023-03-01T03:41:19;8.63;;;6.40;;
8488;SDS011;4281;45.772;12.852;2023-03-01T03:43:47;7.00;;;6.10;;
8488;SDS011;4281;45.772;12.852;2023-03-01T03:46:15;6.93;;;6.13;;
8488;SDS011;4281;45.772;12.852;2023-03-01T03:48:45;6.43;;;5.73;;
8488;SDS011;4281;45.772;12.852;2023-03-01T03:51:13;8.93;;;6.00;;
8488;SDS011;4281;45.772;12.852;2023-03-01T03:53:42;7.20;;;5.70;;
8488;SDS011;4281;45.772;12.852;2023-03-01T03:56:11;6.40;;;5.53;;
8488;SDS011;4281;45.772;12.852;2023-03-01T03:58:39;8.20;;;6.17;;
8488;SDS011;4281;45.772;12.852;2023-03-01T04:01:07;7.17;;;6.33;;
8488;SDS011;4281;45.772;12.852;2023-03-01T04:03:35;7.07;;;5.77;;
8488;SDS011;4281;45.772;12.852;2023-03-01T04:06:04;6.97;;;6.10;;
8488;SDS011;4281;45.772;12.852;2023-03-01T04:08:32;6.27;;;5.53;;
8488;SDS011;4281;45.772;12.852;2023-03-01T04:11:01;6.40;;;5.70;;
8488;SDS011;4281;45.772;12.852;2023-03-01T04:13:50;7.97;;;5.93;;
8488;SDS011;4281;45.772;12.852;2023-03-01T04:16:19;7.10;;;5.57;;
8488;SDS011;4281;45.772;12.852;2023-03-01T04:18:47;6.67;;;5.70;;
8488;SDS011;4281;45.772;12.852;2023-03-01T04:21:16;6.63;;;5.73;;
8488;SDS011;4281;45.772;12.852;2023-03-01T04:23:46;6.73;;;5.93;;
8488;SDS011;4281;45.772;12.852;2023-03-01T04:26:14;7.80;;;6.20;;
8488;SDS011;4281;45.772;12.852;2023-03-01T04:28:42;7.23;;;5.93;;
8488;SDS011;4281;45.772;12.852;2023-03-01T04:31:12;7.30;;;5.60;;
8488;SDS011;4281;45.772;12.852;2023-03-01T04:33:42;7.23;;;5.80;;
8488;SDS011;4281;45.772;12.852;2023-03-01T04:36:11;6.70;;;5.40;;
8488;SDS011;4281;45.772;12.852;2023-03-01T04:38:41;6.10;;;5.47;;
8488;SDS011;4281;45.772;12.852;2023-03-01T04:41:15;7.57;;;6.20;;
8488;SDS011;4281;45.772;12.852;2023-03-01T04:43:44;7.27;;;5.63;;
8488;SDS011;4281;45.772;12.852;2023-03-01T04:46:12;6.23;;;5.60;;
8488;SDS011;4281;45.772;12.852;2023-03-01T04:48:42;5.90;;;5.30;;
8488;SDS011;4281;45.772;12.852;2023-03-01T04:51:11;6.10;;;5.40;;
8488;SDS011;4281;45.772;12.852;2023-03-01T04:53:41;5.83;;;5.13;;
8488;SDS011;4281;45.772;12.852;2023-03-01T04:56:10;6.23;;;5.27;;
8488;SDS011;4281;45.772;12.852;2023-03-01T04:58:39;6.23;;;5.20;;
8488;SDS011;4281;45.772;12.852;2023-03-01T05:01:08;7.53;;;6.07;;
8488;SDS011;4281;45.772;12.852;2023-03-01T05:03:41;7.20;;;5.73;;
8488;SDS011;4281;45.772;12.852;2023-03-01T05:06:11;6.67;;;5.43;;
8488;SDS011;4281;45.772;12.852;2023-03-01T05:08:39;7.10;;;5.40;;
8488;SDS011;4281;45.772;12.852;2023-03-01T05:11:09;6.40;;;5.53;;
8488;SDS011;4281;45.772;12.852;2023-03-01T05:13:37;7.63;;;5.57;;
8488;SDS011;4281;45.772;12.852;2023-03-01T05:16:06;6.27;;;5.67;;
8488;SDS011;4281;45.772;12.852;2023-03-01T05:18:38;6.93;;;5.73;;
8488;SDS011;4281;45.772;12.852;2023-03-01T05:21:07;6.20;;;5.60;;
8488;SDS011;4281;45.772;12.852;2023-03-01T05:23:36;6.73;;;5.07;;
8488;SDS011;4281;45.772;12.852;2023-03-01T05:26:04;7.33;;;5.80;;
8488;SDS011;4281;45.772;12.852;2023-03-01T05:28:52;6.80;;;6.10;;
8488;SDS011;4281;45.772;12.852;2023-03-01T05:31:22;7.93;;;6.27;;
8488;SDS011;4281;45.772;12.852;2023-03-01T05:33:50;6.20;;;5.60;;
8488;SDS011;4281;45.772;12.852;2023-03-01T05:36:18;7.30;;;6.20;;
8488;SDS011;4281;45.772;12.852;2023-03-01T05:38:46;6.60;;;5.90;;
8488;SDS011;4281;45.772;12.852;2023-03-01T05:41:14;6.87;;;5.83;;
8488;SDS011;4281;45.772;12.852;2023-03-01T05:43:43;7.43;;;6.43;;
8488;SDS011;4281;45.772;12.852;2023-03-01T05:46:12;6.80;;;5.60;;
8488;SDS011;4281;45.772;12.852;2023-03-01T05:48:41;8.00;;;5.30;;
8488;SDS011;4281;45.772;12.852;2023-03-01T05:51:09;6.20;;;5.60;;
8488;SDS011;4281;45.772;12.852;2023-03-01T05:53:38;7.30;;;6.20;;
8488;SDS011;4281;45.772;12.852;2023-03-01T05:56:06;7.50;;;5.80;;
8488;SDS011;4281;45.772;12.852;2023-03-01T05:58:34;6.80;;;6.10;;
8488;SDS011;4281;45.772;12.852;2023-03-01T06:01:02;6.53;;;5.70;;
8488;SDS011;4281;45.772;12.852;2023-03-01T06:03:31;7.47;;;6.50;;
8488;SDS011;4281;45.772;12.852;2023-03-01T06:05:59;7.90;;;6.43;;
8488;SDS011;4281;45.772;12.852;2023-03-01T06:08:26;8.27;;;6.80;;
8488;SDS011;4281;45.772;12.852;2023-03-01T06:10:55;7.70;;;6.57;;
8488;SDS011;4281;45.772;12.852;2023-03-01T06:13:23;6.97;;;5.57;;
8488;SDS011;4281;45.772;12.852;2023-03-01T06:15:51;6.43;;;5.83;;
8488;SDS011;4281;45.772;12.852;2023-03-01T06:18:19;8.33;;;6.20;;
8488;SDS011;4281;45.772;12.852;2023-03-01T06:20:53;6.83;;;6.13;;
8488;SDS011;4281;45.772;12.852;2023-03-01T06:23:21;7.10;;;6.33;;
8488;SDS011;4281;45.772;12.852;2023-03-01T06:25:49;6.90;;;6.17;;
8488;SDS011;4281;45.772;12.852;2023-03-01T06:28:17;8.03;;;6.20;;
8488;SDS011;4281;45.772;12.852;2023-03-01T06:30:44;8.17;;;6.13;;
8488;SDS011;4281;45.772;12.852;2023-03-01T06:33:12;8.73;;;6.67;;
8488;SDS011;4281;45.772;12.852;2023-03-01T06:35:41;7.40;;;5.87;;
8488;SDS011;4281;45.772;12.852;2023-03-01T06:38:11;6.73;;;6.03;;
8488;SDS011;4281;45.772;12.852;2023-03-01T06:40:41;6.93;;;5.83;;
8488;SDS011;4281;45.772;12.852;2023-03-01T06:43:09;7.47;;;6.23;;
8488;SDS011;4281;45.772;12.852;2023-03-01T06:45:36;8.17;;;6.27;;
8488;SDS011;4281;45.772;12.852;2023-03-01T06:48:05;7.30;;;6.03;;
8488;SDS011;4281;45.772;12.852;2023-03-01T06:50:34;6.73;;;5.63;;
8488;SDS011;4281;45.772;12.852;2023-03-01T06:53:04;7.57;;;6.43;;
8488;SDS011;4281;45.772;12.852;2023-03-01T06:55:33;7.60;;;6.37;;
8488;SDS011;4281;45.772;12.852;2023-03-01T06:58:01;7.10;;;6.37;;
8488;SDS011;4281;45.772;12.852;2023-03-01T07:00:30;8.57;;;6.37;;
8488;SDS011;4281;45.772;12.852;2023-03-01T07:02:58;6.97;;;6.17;;
8488;SDS011;4281;45.772;12.852;2023-03-01T07:05:28;6.33;;;5.70;;
8488;SDS011;4281;45.772;12.852;2023-03-01T07:07:56;6.13;;;5.53;;
8488;SDS011;4281;45.772;12.852;2023-03-01T07:10:24;7.03;;;5.83;;
8488;SDS011;4281;45.772;12.852;2023-03-01T07:12:55;8.37;;;6.00;;
8488;SDS011;4281;45.772;12.852;2023-03-01T07:15:23;6.93;;;5.83;;
8488;SDS011;4281;45.772;12.852;2023-03-01T07:17:51;9.67;;;6.17;;
8488;SDS011;4281;45.772;12.852;2023-03-01T07:20:19;6.07;;;5.47;;
8488;SDS011;4281;45.772;12.852;2023-03-01T07:22:50;6.07;;;5.47;;
8488;SDS011;4281;45.772;12.852;2023-03-01T07:25:18;6.03;;;5.47;;
8488;SDS011;4281;45.772;12.852;2023-03-01T07:27:48;7.20;;;5.53;;
8488;SDS011;4281;45.772;12.852;2023-03-01T07:30:18;6.73;;;5.83;;
8488;SDS011;4281;45.772;12.852;2023-03-01T07:32:47;6.90;;;5.60;;
8488;SDS011;4281;45.772;12.852;2023-03-01T07:35:15;8.70;;;5.97;;
8488;SDS011;4281;45.772;12.852;2023-03-01T07:37:43;6.73;;;5.80;;
8488;SDS011;4281;45.772;12.852;2023-03-01T07:40:11;6.47;;;5.80;;
8488;SDS011;4281;45.772;12.852;2023-03-01T07:42:39;7.10;;;5.93;;
8488;SDS011;4281;45.772;12.852;2023-03-01T07:45:07;7.17;;;6.30;;
8488;SDS011;4281;45.772;12.852;2023-03-01T07:47:37;7.07;;;6.13;;
8488;SDS011;4281;45.772;12.852;2023-03-01T07:50:05;7.40;;;6.10;;
8488;SDS011;4281;45.772;12.852;2023-03-01T07:52:34;6.33;;;5.70;;
8488;SDS011;4281;45.772;12.852;2023-03-01T07:55:01;6.77;;;5.57;;
8488;SDS011;4281;45.772;12.852;2023-03-01T07:57:29;7.13;;;6.20;;
8488;SDS011;4281;45.772;12.852;2023-03-01T07:59:57;7.03;;;5.63;;
8488;SDS011;4281;45.772;12.852;2023-03-01T08:02:25;6.40;;;5.73;;
8488;SDS011;4281;45.772;12.852;2023-03-01T08:04:54;8.00;;;6.33;;
8488;SDS011;4281;45.772;12.852;2023-03-01T08:07:22;7.63;;;6.33;;
8488;SDS011;4281;45.772;12.852;2023-03-01T08:09:50;6.87;;;5.90;;
8488;SDS011;4281;45.772;12.852;2023-03-01T08:12:18;7.57;;;6.07;;
8488;SDS011;4281;45.772;12.852;2023-03-01T08:14:45;6.97;;;6.13;;
8488;SDS011;4281;45.772;12.852;2023-03-01T08:17:13;7.83;;;6.20;;
8488;SDS011;4281;45.772;12.852;2023-03-01T08:19:42;7.33;;;5.77;;
8488;SDS011;4281;45.772;12.852;2023-03-01T08:22:12;7.77;;;6.10;;
8488;SDS011;4281;45.772;12.852;2023-03-01T08:24:40;6.57;;;5.80;;
8488;SDS011;4281;45.772;12.852;2023-03-01T08:27:07;7.47;;;5.70;;
8488;SDS011;4281;45.772;12.852;2023-03-01T08:29:36;8.00;;;6.03;;
8488;SDS011;4281;45.772;12.852;2023-03-01T08:32:04;8.07;;;6.13;;
8488;SDS011;4281;45.772;12.852;2023-03-01T08:34:32;6.20;;;5.23;;
8488;SDS011;4281;45.772;12.852;2023-03-01T08:37:01;6.63;;;5.93;;
8488;SDS011;4281;45.772;12.852;2023-03-01T08:39:31;7.80;;;5.37;;
8488;SDS011;4281;45.772;12.852;2023-03-01T08:41:59;8.10;;;5.93;;
8488;SDS011;4281;45.772;12.852;2023-03-01T08:44:26;5.90;;;5.07;;
8488;SDS011;4281;45.772;12.852;2023-03-01T08:46:54;5.57;;;5.07;;
8488;SDS011;4281;45.772;12.852;2023-03-01T08:49:23;7.67;;;5.77;;
8488;SDS011;4281;45.772;12.852;2023-03-01T08:51:51;6.20;;;5.60;;
8488;SDS011;4281;45.772;12.852;2023-03-01T08:54:20;7.20;;;5.37;;
8488;SDS011;4281;45.772;12.852;2023-03-01T08:56:50;7.03;;;6.00;;
8488;SDS011;4281;45.772;12.852;2023-03-01T08:59:18;6.03;;;4.93;;
8488;SDS011;4281;45.772;12.852;2023-03-01T09:01:46;6.00;;;5.40;;
8488;SDS011;4281;45.772;12.852;2023-03-01T09:04:14;6.17;;;5.23;;
8488;SDS011;4281;45.772;12.852;2023-03-01T09:06:42;8.20;;;5.73;;
8488;SDS011;4281;45.772;12.852;2023-03-01T09:09:12;6.20;;;5.00;;
8488;SDS011;4281;45.772;12.852;2023-03-01T09:11:42;8.63;;;5.87;;
8488;SDS011;4281;45.772;12.852;2023-03-01T09:14:13;6.40;;;5.40;;
8488;SDS011;4281;45.772;12.852;2023-03-01T09:16:41;7.97;;;4.83;;
8488;SDS011;4281;45.772;12.852;2023-03-01T09:19:09;7.67;;;5.10;;
8488;SDS011;4281;45.772;12.852;2023-03-01T09:21:37;6.67;;;4.90;;
8488;SDS011;4281;45.772;12.852;2023-03-01T09:24:07;8.03;;;4.97;;
8488;SDS011;4281;45.772;12.852;2023-03-01T09:26:40;8.07;;;5.23;;
8488;SDS011;4281;45.772;12.852;2023-03-01T09:29:08;7.47;;;4.77;;
8488;SDS011;4281;45.772;12.852;2023-03-01T09:31:38;8.27;;;4.60;;
8488;SDS011;4281;45.772;12.852;2023-03-01T09:34:06;8.93;;;4.93;;
8488;SDS011;4281;45.772;12.852;2023-03-01T09:36:34;9.13;;;4.60;;
8488;SDS011;4281;45.772;12.852;2023-03-01T09:39:02;11.07;;;4.60;;
8488;SDS011;4281;45.772;12.852;2023-03-01T09:41:42;7.20;;;4.47;;
8488;SDS011;4281;45.772;12.852;2023-03-01T09:44:15;10.17;;;4.27;;
8488;SDS011;4281;45.772;12.852;2023-03-01T09:46:50;9.07;;;4.47;;
8488;SDS011;4281;45.772;12.852;2023-03-01T09:49:19;7.57;;;4.03;;
8488;SDS011;4281;45.772;12.852;2023-03-01T09:51:54;9.97;;;4.43;;
8488;SDS011;4281;45.772;12.852;2023-03-01T09:54:24;7.40;;;4.33;;
8488;SDS011;4281;45.772;12.852;2023-03-01T09:56:57;8.10;;;3.87;;
8488;SDS011;4281;45.772;12.852;2023-03-01T09:59:30;5.93;;;3.60;;
8488;SDS011;4281;45.772;12.852;2023-03-01T10:02:11;8.80;;;4.13;;
8488;SDS011;4281;45.772;12.852;2023-03-01T10:04:56;7.83;;;3.97;;
8488;SDS011;4281;45.772;12.852;2023-03-01T10:07:30;7.30;;;4.07;;
8488;SDS011;4281;45.772;12.852;2023-03-01T10:10:00;7.27;;;4.20;;
8488;SDS011;4281;45.772;12.852;2023-03-01T10:12:33;6.43;;;3.77;;
8488;SDS011;4281;45.772;12.852;2023-03-01T10:15:04;5.87;;;3.67;;
8488;SDS011;4281;45.772;12.852;2023-03-01T10:17:39;6.67;;;4.03;;
8488;SDS011;4281;45.772;12.852;2023-03-01T10:20:14;7.37;;;3.83;;
8488;SDS011;4281;45.772;12.852;2023-03-01T10:22:45;5.00;;;3.67;;
8488;SDS011;4281;45.772;12.852;2023-03-01T10:25:21;9.23;;;4.60;;
8488;SDS011;4281;45.772;12.852;2023-03-01T10:27:55;6.80;;;3.70;;
8488;SDS011;4281;45.772;12.852;2023-03-01T10:30:29;6.70;;;4.10;;
8488;SDS011;4281;45.772;12.852;2023-03-01T10:33:03;7.13;;;4.57;;
8488;SDS011;4281;45.772;12.852;2023-03-01T10:35:35;7.70;;;4.20;;
8488;SDS011;4281;45.772;12.852;2023-03-01T10:38:04;6.67;;;4.00;;
8488;SDS011;4281;45.772;12.852;2023-03-01T10:40:34;6.50;;;4.17;;
8488;SDS011;4281;45.772;12.852;2023-03-01T10:43:03;7.97;;;4.30;;
8488;SDS011;4281;45.772;12.852;2023-03-01T10:45:33;8.00;;;4.20;;
8488;SDS011;4281;45.772;12.852;2023-03-01T10:48:10;6.23;;;4.50;;
8488;SDS011;4281;45.772;12.852;2023-03-01T10:50:41;10.37;;;3.80;;
8488;SDS011;4281;45.772;12.852;2023-03-01T10:53:24;7.13;;;3.97;;
8488;SDS011;4281;45.772;12.852;2023-03-01T10:55:56;7.27;;;4.10;;
8488;SDS011;4281;45.772;12.852;2023-03-01T10:58:25;6.93;;;4.20;;
8488;SDS011;4281;45.772;12.852;2023-03-01T11:00:55;5.60;;;3.80;;
8488;SDS011;4281;45.772;12.852;2023-03-01T11:03:26;6.23;;;4.13;;
8488;SDS011;4281;45.772;12.852;2023-03-01T11:05:56;6.07;;;3.77;;
8488;SDS011;4281;45.772;12.852;2023-03-01T11:08:30;6.73;;;4.23;;
8488;SDS011;4281;45.772;12.852;2023-03-01T11:13:53;6.57;;;3.97;;
8488;SDS011;4281;45.772;12.852;2023-03-01T11:16:23;5.90;;;3.93;;
8488;SDS011;4281;45.772;12.852;2023-03-01T11:18:58;7.37;;;4.50;;
8488;SDS011;4281;45.772;12.852;2023-03-01T11:21:28;6.33;;;4.07;;
8488;SDS011;4281;45.772;12.852;2023-03-01T11:23:58;6.37;;;4.20;;
8488;SDS011;4281;45.772;12.852;2023-03-01T11:26:28;5.20;;;4.00;;
8488;SDS011;4281;45.772;12.852;2023-03-01T11:28:58;5.63;;;4.03;;
8488;SDS011;4281;45.772;12.852;2023-03-01T11:31:30;6.40;;;4.07;;
8488;SDS011;4281;45.772;12.852;2023-03-01T11:34:03;8.60;;;3.63;;
8488;SDS011;4281;45.772;12.852;2023-03-01T11:36:36;6.57;;;3.70;;
8488;SDS011;4281;45.772;12.852;2023-03-01T11:39:12;5.87;;;3.60;;
8488;SDS011;4281;45.772;12.852;2023-03-01T11:41:46;5.07;;;3.53;;
8488;SDS011;4281;45.772;12.852;2023-03-01T11:44:18;5.77;;;3.83;;
8488;SDS011;4281;45.772;12.852;2023-03-01T11:46:58;5.90;;;4.07;;
8488;SDS011;4281;45.772;12.852;2023-03-01T11:49:51;4.93;;;3.97;;
8488;SDS011;4281;45.772;12.852;2023-03-01T11:52:32;6.03;;;4.03;;
8488;SDS011;4281;45.772;12.852;2023-03-01T11:55:17;4.07;;;3.50;;
8488;SDS011;4281;45.772;12.852;2023-03-01T11:57:55;5.47;;;4.00;;
8488;SDS011;4281;45.772;12.852;2023-03-01T12:00:38;5.13;;;4.13;;
8488;SDS011;4281;45.772;12.852;2023-03-01T12:03:25;6.90;;;3.90;;
8488;SDS011;4281;45.772;12.852;2023-03-01T12:06:01;5.47;;;4.10;;
8488;SDS011;4281;45.772;12.852;2023-03-01T12:08:41;4.97;;;3.70;;
8488;SDS011;4281;45.772;12.852;2023-03-01T12:11:14;6.07;;;4.13;;
8488;SDS011;4281;45.772;12.852;2023-03-01T12:13:51;8.17;;;4.03;;
8488;SDS011;4281;45.772;12.852;2023-03-01T12:22:32;4.67;;;3.93;;
8488;SDS011;4281;45.772;12.852;2023-03-01T12:25:08;4.87;;;4.07;;
8488;SDS011;4281;45.772;12.852;2023-03-01T12:30:35;4.70;;;3.37;;
8488;SDS011;4281;45.772;12.852;2023-03-01T12:33:13;6.07;;;3.90;;
8488;SDS011;4281;45.772;12.852;2023-03-01T12:35:59;5.80;;;3.70;;
8488;SDS011;4281;45.772;12.852;2023-03-01T12:38:40;3.80;;;3.40;;
8488;SDS011;4281;45.772;12.852;2023-03-01T12:41:25;4.20;;;3.37;;
8488;SDS011;4281;45.772;12.852;2023-03-01T12:44:01;4.77;;;3.70;;
8488;SDS011;4281;45.772;12.852;2023-03-01T12:46:38;4.83;;;3.67;;
8488;SDS011;4281;45.772;12.852;2023-03-01T12:49:14;5.30;;;3.57;;
8488;SDS011;4281;45.772;12.852;2023-03-01T12:51:44;4.70;;;3.70;;
8488;SDS011;4281;45.772;12.852;2023-03-01T12:54:19;5.30;;;3.50;;
8488;SDS011;4281;45.772;12.852;2023-03-01T12:56:50;5.60;;;3.77;;
8488;SDS011;4281;45.772;12.852;2023-03-01T12:59:20;4.00;;;3.60;;
8488;SDS011;4281;45.772;12.852;2023-03-01T13:01:53;5.63;;;3.60;;
8488;SDS011;4281;45.772;12.852;2023-03-01T13:04:27;4.40;;;3.50;;
8488;SDS011;4281;45.772;12.852;2023-03-01T13:07:07;4.50;;;4.00;;
8488;SDS011;4281;45.772;12.852;2023-03-01T13:09:43;5.80;;;3.87;;
8488;SDS011;4281;45.772;12.852;2023-03-01T13:20:55;4.43;;;3.27;;
8488;SDS011;4281;45.772;12.852;2023-03-01T13:23:25;4.20;;;3.27;;
8488;SDS011;4281;45.772;12.852;2023-03-01T13:28:48;3.80;;;2.80;;
8488;SDS011;4281;45.772;12.852;2023-03-01T13:34:42;4.93;;;2.83;;
8488;SDS011;4281;45.772;12.852;2023-03-01T13:37:24;3.40;;;3.10;;
8488;SDS011;4281;45.772;12.852;2023-03-01T13:39:56;5.70;;;2.63;;
8488;SDS011;4281;45.772;12.852;2023-03-01T13:42:31;4.67;;;2.53;;
8488;SDS011;4281;45.772;12.852;2023-03-01T13:45:04;3.30;;;2.33;;
8488;SDS011;4281;45.772;12.852;2023-03-01T13:47:41;3.90;;;2.80;;
8488;SDS011;4281;45.772;12.852;2023-03-01T13:50:16;4.43;;;2.50;;
8488;SDS011;4281;45.772;12.852;2023-03-01T13:52:48;2.93;;;2.27;;
8488;SDS011;4281;45.772;12.852;2023-03-01T13:55:18;5.20;;;2.70;;
8488;SDS011;4281;45.772;12.852;2023-03-01T13:57:50;2.67;;;2.47;;
8488;SDS011;4281;45.772;12.852;2023-03-01T14:00:26;3.47;;;2.57;;
8488;SDS011;4281;45.772;12.852;2023-03-01T14:03:02;3.53;;;2.30;;
8488;SDS011;4281;45.772;12.852;2023-03-01T14:08:22;3.43;;;2.37;;
8488;SDS011;4281;45.772;12.852;2023-03-01T14:10:54;3.23;;;2.63;;
8488;SDS011;4281;45.772;12.852;2023-03-01T14:13:41;3.13;;;2.67;;
8488;SDS011;4281;45.772;12.852;2023-03-01T14:16:19;2.80;;;2.50;;
8488;SDS011;4281;45.772;12.852;2023-03-01T14:18:54;2.53;;;2.33;;
8488;SDS011;4281;45.772;12.852;2023-03-01T14:21:28;4.70;;;2.73;;
8488;SDS011;4281;45.772;12.852;2023-03-01T14:23:56;3.07;;;2.60;;
8488;SDS011;4281;45.772;12.852;2023-03-01T14:26:25;2.90;;;2.57;;
8488;SDS011;4281;45.772;12.852;2023-03-01T14:28:54;2.90;;;2.60;;
8488;SDS011;4281;45.772;12.852;2023-03-01T14:31:29;3.20;;;2.60;;
8488;SDS011;4281;45.772;12.852;2023-03-01T14:34:16;3.53;;;2.47;;
8488;SDS011;4281;45.772;12.852;2023-03-01T14:36:46;5.10;;;2.67;;
8488;SDS011;4281;45.772;12.852;2023-03-01T14:39:18;5.13;;;2.73;;
8488;SDS011;4281;45.772;12.852;2023-03-01T14:41:47;2.60;;;2.40;;
8488;SDS011;4281;45.772;12.852;2023-03-01T14:44:18;4.03;;;2.40;;
8488;SDS011;4281;45.772;12.852;2023-03-01T14:46:51;3.17;;;2.63;;
8488;SDS011;4281;45.772;12.852;2023-03-01T14:49:20;2.43;;;2.07;;
8488;SDS011;4281;45.772;12.852;2023-03-01T14:51:51;3.63;;;2.70;;
8488;SDS011;4281;45.772;12.852;2023-03-01T14:54:23;3.93;;;2.47;;
8488;SDS011;4281;45.772;12.852;2023-03-01T14:56:53;2.93;;;2.37;;
8488;SDS011;4281;45.772;12.852;2023-03-01T14:59:26;2.63;;;2.43;;
8488;SDS011;4281;45.772;12.852;2023-03-01T15:01:55;3.97;;;2.27;;
8488;SDS011;4281;45.772;12.852;2023-03-01T15:04:24;2.37;;;2.17;;
8488;SDS011;4281;45.772;12.852;2023-03-01T15:06:54;2.50;;;2.10;;
8488;SDS011;4281;45.772;12.852;2023-03-01T15:09:22;3.47;;;3.00;;
8488;SDS011;4281;45.772;12.852;2023-03-01T15:11:50;3.97;;;2.67;;
8488;SDS011;4281;45.772;12.852;2023-03-01T15:14:28;3.97;;;2.70;;
8488;SDS011;4281;45.772;12.852;2023-03-01T15:17:03;3.33;;;3.00;;
8488;SDS011;4281;45.772;12.852;2023-03-01T15:19:33;3.37;;;3.07;;
8488;SDS011;4281;45.772;12.852;2023-03-01T15:22:00;3.53;;;3.00;;
8488;SDS011;4281;45.772;12.852;2023-03-01T15:24:38;3.20;;;2.73;;
8488;SDS011;4281;45.772;12.852;2023-03-01T15:27:13;5.13;;;3.07;;
8488;SDS011;4281;45.772;12.852;2023-03-01T15:29:43;3.13;;;2.57;;
8488;SDS011;4281;45.772;12.852;2023-03-01T15:32:25;2.50;;;2.30;;
8488;SDS011;4281;45.772;12.852;2023-03-01T15:34:55;2.60;;;2.40;;
8488;SDS011;4281;45.772;12.852;2023-03-01T15:37:38;3.13;;;2.40;;
8488;SDS011;4281;45.772;12.852;2023-03-01T15:40:18;3.73;;;2.70;;
8488;SDS011;4281;45.772;12.852;2023-03-01T15:42:47;2.60;;;2.37;;
8488;SDS011;4281;45.772;12.852;2023-03-01T15:45:23;2.60;;;2.30;;
8488;SDS011;4281;45.772;12.852;2023-03-01T15:47:53;2.70;;;2.50;;
8488;SDS011;4281;45.772;12.852;2023-03-01T15:50:25;2.83;;;2.63;;
8488;SDS011;4281;45.772;12.852;2023-03-01T15:52:53;2.63;;;2.43;;
8488;SDS011;4281;45.772;12.852;2023-03-01T15:55:22;2.80;;;2.60;;